createdAt,value
2022-08-28T00:02:12.924Z,1484
2022-08-28T00:07:14.531Z,1655.11111
2022-08-28T00:12:16.115Z,1376.55814
2022-08-28T00:17:17.727Z,1201.14286
2022-08-28T00:22:19.308Z,1227.33333
2022-08-28T00:27:20.895Z,1227.33333
2022-08-28T00:32:22.457Z,1254.6383
2022-08-28T00:37:24.682Z,1176
2022-08-28T00:42:26.457Z,1283.13043
2022-08-28T00:47:28.045Z,1283.13043
2022-08-28T00:52:29.632Z,1410.66667
2022-08-28T00:57:31.225Z,1446.43902
2022-08-28T01:02:33.017Z,1283.13043
2022-08-28T01:07:34.665Z,1376.55814
2022-08-28T01:12:36.330Z,1283.13043
2022-08-28T01:17:37.952Z,1344
2022-08-28T01:22:44.754Z,1176
2022-08-28T01:27:46.379Z,1176
2022-08-28T01:32:47.992Z,1376.55814
2022-08-28T01:37:49.619Z,1523.48718
2022-08-28T01:42:51.262Z,1410.66667
2022-08-28T01:47:52.932Z,1446.43902
2022-08-28T01:52:54.557Z,1128.61538
2022-08-28T01:57:56.147Z,1084.74074
2022-08-28T02:02:57.761Z,937.54839
2022-08-28T02:07:59.413Z,863.40299
2022-08-28T02:13:00.989Z,1176
2022-08-28T02:18:02.616Z,921.77778
2022-08-28T02:23:04.227Z,1044
2022-08-28T02:28:05.853Z,1201.14286
2022-08-28T02:33:07.523Z,1344
2022-08-28T02:38:09.175Z,1006.06897
2022-08-28T02:43:10.822Z,1106.26415
2022-08-28T02:48:16.772Z,953.83607
2022-08-28T02:53:18.950Z,863.40299
2022-08-28T02:58:20.551Z,765.33333
2022-08-28T03:03:22.120Z,579.05155
2022-08-28T03:08:27.277Z,514.37037
2022-08-28T03:13:29.198Z,504
2022-08-28T03:18:30.810Z,466.0339
2022-08-28T03:23:32.453Z,525.13208
2022-08-28T03:28:34.029Z,421.51938
2022-08-28T03:33:35.629Z,448.91803
2022-08-28T03:38:37.234Z,417.84615
2022-08-28T03:43:38.854Z,280.61202
2022-08-28T03:48:44.735Z,268.21053
2022-08-28T03:53:46.605Z,294
2022-08-28T03:58:48.191Z,417.84615
2022-08-28T04:03:49.829Z,484.35088
2022-08-28T04:08:51.550Z,553.90099
2022-08-28T04:13:53.146Z,628.44444
2022-08-28T04:18:54.739Z,592.42105
2022-08-28T04:23:56.312Z,371.77778
2022-08-28T04:28:57.903Z,329
2022-08-28T04:33:59.470Z,414.22901
2022-08-28T04:39:01.129Z,264.83333
2022-08-28T04:44:02.712Z,198.54545
2022-08-28T04:49:04.515Z,248.9505
2022-08-28T04:54:06.166Z,296
2022-08-28T04:59:07.810Z,253.54774
2022-08-28T05:04:09.375Z,268.21053
2022-08-28T05:09:10.988Z,371.77778
2022-08-28T05:14:15.823Z,387.16547
2022-08-28T05:19:17.828Z,390.37681
2022-08-28T05:24:19.690Z,294
2022-08-28T05:29:21.312Z,288.13408
2022-08-28T05:34:25.202Z,324.24691
2022-08-28T05:39:26.822Z,266.51309
2022-08-28T05:44:28.416Z,331.42138
2022-08-28T05:49:30.039Z,319.60976
2022-08-28T05:54:31.663Z,363.04762
2022-08-28T05:59:33.294Z,374.76923
2022-08-28T06:04:34.994Z,484.35088
2022-08-28T06:09:36.659Z,498.95495
2022-08-28T06:14:38.374Z,354.66667
2022-08-28T06:19:41.661Z,344
2022-08-28T06:24:43.458Z,421.51938
2022-08-28T06:29:45.135Z,312.86228
2022-08-28T06:34:46.935Z,368.82759
2022-08-28T06:39:48.594Z,357.42282
2022-08-28T06:44:50.160Z,292.0226
2022-08-28T06:49:51.726Z,393.63504
2022-08-28T06:54:55.545Z,269.92593
2022-08-28T06:59:57.792Z,374.76923
2022-08-28T07:04:59.383Z,306.35294
2022-08-28T07:10:00.988Z,269.92593
2022-08-28T07:15:02.657Z,237.33333
2022-08-28T07:20:04.221Z,256.69036
2022-08-28T07:25:05.820Z,354.66667
2022-08-28T07:30:07.473Z,377.80282
2022-08-28T07:35:09.091Z,284.33149
2022-08-28T07:40:11.381Z,266.51309
2022-08-28T07:45:13.111Z,266.51309
2022-08-28T07:50:14.716Z,252
2022-08-28T07:55:16.322Z,235.94313
2022-08-28T08:00:17.941Z,215.36564
2022-08-28T08:05:20.279Z,286.22222
2022-08-28T08:10:21.891Z,212.99563
2022-08-28T08:15:23.522Z,215.36564
2022-08-28T08:20:25.163Z,210.66667
2022-08-28T08:25:26.788Z,227.87097
2022-08-28T08:30:28.389Z,215.36564
2022-08-28T08:35:30.157Z,221.47748
2022-08-28T08:40:31.794Z,205.01695
2022-08-28T08:45:33.462Z,199.60166
2022-08-28T08:50:35.040Z,209.51724
2022-08-28T08:55:36.659Z,224
2022-08-28T09:00:38.266Z,190.4
2022-08-28T09:05:39.886Z,203.91561
2022-08-28T09:10:41.504Z,263.17098
2022-08-28T09:15:46.323Z,219
2022-08-28T09:20:50.467Z,259.89744
2022-08-28T09:25:52.115Z,209.51724
2022-08-28T09:30:53.771Z,227.87097
2022-08-28T09:35:55.396Z,205.01695
2022-08-28T09:40:57.008Z,230.51163
2022-08-28T09:45:58.667Z,206.12766
2022-08-28T09:51:00.280Z,226.56881
2022-08-28T09:56:01.930Z,221.47748
2022-08-28T10:01:03.547Z,207.24786
2022-08-28T10:06:05.202Z,237.33333
2022-08-28T10:11:06.811Z,233.20188
2022-08-28T10:16:08.446Z,201.74059
2022-08-28T10:21:10.071Z,221.47748
2022-08-28T10:26:11.685Z,210.66667
2022-08-28T10:31:13.315Z,203.91561
2022-08-28T10:36:28.710Z,217.77778
2022-08-28T10:41:36.559Z,248.9505
2022-08-28T10:46:38.281Z,250.46766
2022-08-28T10:51:43.633Z,205.01695
2022-08-28T10:56:46.339Z,206.12766
2022-08-28T11:01:54.197Z,215.36564
2022-08-28T11:06:56.059Z,208.37768
2022-08-28T11:12:01.764Z,252
2022-08-28T11:17:04.036Z,234.56604
2022-08-28T11:22:07.096Z,240.15385
2022-08-28T11:27:08.691Z,225.27854
2022-08-28T11:32:10.299Z,224
2022-08-28T11:37:11.906Z,233.20188
2022-08-28T11:42:13.500Z,191.38956
2022-08-28T11:47:15.084Z,186.51969
2022-08-28T11:52:16.669Z,261.52577
2022-08-28T11:57:18.258Z,271.65957
2022-08-28T12:02:20.082Z,219
2022-08-28T12:07:21.738Z,217.77778
2022-08-28T12:12:23.354Z,192.3871
2022-08-28T12:17:29.145Z,178.22053
2022-08-28T12:22:32.693Z,201.74059
2022-08-28T12:27:34.325Z,203.91561
2022-08-28T12:32:36.021Z,179.1145
2022-08-28T12:37:51.275Z,169.64103
2022-08-28T12:42:55.477Z,177.33333
2022-08-28T12:47:57.395Z,184.625
2022-08-28T12:52:59.007Z,164.78853
2022-08-28T12:58:00.579Z,159.38462
2022-08-28T13:03:02.236Z,154.23891
2022-08-28T13:08:03.921Z,168.81752
2022-08-28T13:13:06.936Z,167.18841
2022-08-28T13:18:08.551Z,164
2022-08-28T13:23:10.148Z,186.51969
2022-08-28T13:28:11.699Z,150.71141
2022-08-28T13:33:13.531Z,149.33333
2022-08-28T13:38:15.305Z,241.58454
2022-08-28T13:43:16.914Z,187.47826
2022-08-28T13:48:18.653Z,168.81752
2022-08-28T13:53:20.216Z,193.39271
2022-08-28T13:58:22.500Z,173.85075
2022-08-28T14:03:24.097Z,169.64103
2022-08-28T14:08:25.737Z,172.99628
2022-08-28T14:13:27.306Z,163.21708
2022-08-28T14:18:28.988Z,184.625
2022-08-28T14:23:30.572Z,188.44444
2022-08-28T14:28:32.176Z,210.66667
2022-08-28T14:33:36.923Z,207.24786
2022-08-28T14:38:38.922Z,256.69036
2022-08-28T14:43:40.551Z,298.02299
2022-08-28T14:48:42.133Z,346.61438
2022-08-28T14:53:43.735Z,344
2022-08-28T14:58:45.361Z,365.91781
2022-08-28T15:03:47.162Z,351.94702
2022-08-28T15:08:48.955Z,317.33333
2022-08-28T15:13:50.585Z,290.06742
2022-08-28T15:18:52.268Z,284.33149
2022-08-28T15:23:53.867Z,329
2022-08-28T15:28:55.484Z,363.04762
2022-08-28T15:33:57.117Z,319.60976
2022-08-28T15:38:58.779Z,360.21622
2022-08-28T15:44:00.409Z,363.04762
2022-08-28T15:49:02.133Z,344
2022-08-28T15:54:04.749Z,349.26316
2022-08-28T15:59:06.358Z,298.02299
2022-08-28T16:04:08.139Z,354.66667
2022-08-28T16:09:09.770Z,407.15789
2022-08-28T16:14:11.378Z,393.63504
2022-08-28T16:19:12.954Z,414.22901
2022-08-28T16:24:14.540Z,374.76923
2022-08-28T16:29:16.150Z,417.84615
2022-08-28T16:34:19.681Z,498.95495
2022-08-28T16:39:21.926Z,494
2022-08-28T16:44:23.534Z,509.13761
2022-08-28T16:49:25.116Z,444.81301
2022-08-28T16:54:26.735Z,489.13274
2022-08-28T16:59:28.383Z,514.37037
2022-08-28T17:04:30.019Z,417.84615
2022-08-28T17:09:31.649Z,484.35088
2022-08-28T17:14:33.320Z,479.65217
2022-08-28T17:19:34.978Z,403.70149
2022-08-28T17:24:36.603Z,407.15789
2022-08-28T17:29:38.169Z,421.51938
2022-08-28T17:34:39.774Z,432.88889
2022-08-28T17:39:41.413Z,457.33333
2022-08-28T17:44:43.026Z,444.81301
2022-08-28T17:49:44.624Z,479.65217
2022-08-28T17:54:46.209Z,628.44444
2022-08-28T17:59:47.800Z,519.70093
2022-08-28T18:04:49.457Z,519.70093
2022-08-28T18:09:51.093Z,566.22222
2022-08-28T18:14:52.880Z,636.13483
2022-08-28T18:19:54.478Z,572.57143
2022-08-28T18:24:56.072Z,553.90099
2022-08-28T18:29:57.664Z,636.13483
2022-08-28T18:34:59.240Z,620.92308
2022-08-28T18:40:00.847Z,560
2022-08-28T18:45:03.358Z,677.33333
2022-08-28T18:50:05.059Z,723.74684
2022-08-28T18:55:06.871Z,677.33333
2022-08-28T19:00:08.457Z,613.56522
2022-08-28T19:05:10.074Z,628.44444
2022-08-28T19:10:28.352Z,744
2022-08-28T19:15:35.185Z,695.21951
2022-08-28T19:20:36.816Z,677.33333
2022-08-28T19:25:38.435Z,636.13483
2022-08-28T19:30:40.221Z,613.56522
2022-08-28T19:35:41.899Z,628.44444
2022-08-28T19:40:43.732Z,572.57143
2022-08-28T19:45:45.343Z,628.44444
2022-08-28T19:50:46.949Z,668.70588
2022-08-28T19:55:48.553Z,652.04598
2022-08-28T20:00:50.151Z,579.05155
2022-08-28T20:05:51.779Z,553.90099
2022-08-28T20:10:53.388Z,592.42105
2022-08-28T20:15:55.080Z,599.31915
2022-08-28T20:20:56.755Z,613.56522
2022-08-28T20:25:58.426Z,585.66667
2022-08-28T20:31:00.143Z,592.42105
2022-08-28T20:36:01.822Z,542.05825
2022-08-28T20:41:03.535Z,668.70588
2022-08-28T20:46:05.224Z,686.16867
2022-08-28T20:51:06.962Z,620.92308
2022-08-28T20:56:08.618Z,494
2022-08-28T21:01:10.265Z,606.36559
2022-08-28T21:06:11.870Z,714
2022-08-28T21:11:13.499Z,585.66667
2022-08-28T21:16:15.290Z,677.33333
2022-08-28T21:21:16.907Z,652.04598
2022-08-28T21:26:20.624Z,566.22222
2022-08-28T21:31:22.287Z,592.42105
2022-08-28T21:36:23.893Z,599.31915
2022-08-28T21:41:25.548Z,606.36559
2022-08-28T21:46:27.273Z,519.70093
2022-08-28T21:51:28.844Z,585.66667
2022-08-28T21:56:31.346Z,547.92157
2022-08-28T22:01:33.202Z,599.31915
2022-08-28T22:06:34.868Z,636.13483
2022-08-28T22:11:36.483Z,592.42105
2022-08-28T22:16:38.200Z,704.49383
2022-08-28T22:21:39.914Z,479.65217
2022-08-28T22:26:41.485Z,525.13208
2022-08-28T22:31:43.960Z,566.22222
2022-08-28T22:36:47.882Z,432.88889
2022-08-28T22:41:49.473Z,566.22222
2022-08-28T22:46:51.079Z,484.35088
2022-08-28T22:51:52.638Z,432.88889
2022-08-28T22:56:54.264Z,504
2022-08-28T23:01:55.931Z,444.81301
2022-08-28T23:06:57.515Z,606.36559
2022-08-28T23:12:00.110Z,519.70093
2022-08-28T23:17:02.029Z,306.35294
2022-08-28T23:22:03.679Z,278.78261
2022-08-28T23:27:25.565Z,336.35669
2022-08-28T23:32:36.952Z,374.76923
2022-08-28T23:37:38.629Z,365.91781
2022-08-28T23:42:40.274Z,344
2022-08-28T23:47:41.840Z,368.82759
2022-08-28T23:52:44.208Z,338.87179
2022-08-28T23:57:46.146Z,336.35669
